Time;durP1;ratioP1;P1;durP2;ratioP2;P2;SDS_P1;SDS_P2;PMS_P1;PMS_P2;Temp;Humidity;BMP_temperature;BMP_pressure;BME280_temperature;BME280_humidity;BME280_pressure;Samples;Min_cycle;Max_cycle;Signal;HPM_P1;HPM_P2
2022/12/18 00:02:47;;;;;;;75.72;19.85;;;;;;;;;;6251163;28;20044;-61
2022/12/18 00:05:50;;;;;;;70.80;20.23;;;;;;;;;;6249185;28;20567;-61
2022/12/18 00:08:50;;;;;;;79.65;21.38;;;;;;;;;;6251126;28;20045;-61
2022/12/18 00:11:51;;;;;;;78.82;19.83;;;;;;;;;;6259195;28;20057;-62
2022/12/18 00:14:52;;;;;;;84.10;20.27;;;;;;;;;;6261147;28;20060;-61
2022/12/18 00:17:53;;;;;;;78.10;21.52;;;;;;;;;;6254528;28;20045;-61
2022/12/18 00:20:53;;;;;;;88.75;23.13;;;;;;;;;;6261319;28;20053;-61
2022/12/18 00:23:54;;;;;;;80.93;21.02;;;;;;;;;;6248806;28;20100;-61
2022/12/18 00:26:54;;;;;;;83.47;21.83;;;;;;;;;;6250832;28;20053;-60
2022/12/18 00:29:55;;;;;;;80.85;20.15;;;;;;;;;;6249897;28;20049;-61
2022/12/18 00:32:57;;;;;;;80.45;22.55;;;;;;;;;;6259078;28;20379;-61
2022/12/18 00:36:02;;;;;;;81.35;19.75;;;;;;;;;;6248777;28;20121;-61
2022/12/18 00:39:04;;;;;;;84.05;22.58;;;;;;;;;;6251534;28;20044;-61
2022/12/18 00:45:29;;;;;;;82.45;20.42;;;;;;;;;;6250655;28;20553;-61
2022/12/18 00:48:30;;;;;;;76.75;20.88;;;;;;;;;;6249135;28;20056;-61
2022/12/18 00:51:30;;;;;;;81.80;20.60;;;;;;;;;;6265861;28;20061;-60
2022/12/18 00:54:31;;;;;;;75.20;18.20;;;;;;;;;;6256656;28;20041;-61
2022/12/18 00:57:31;;;;;;;78.07;20.35;;;;;;;;;;6251282;28;20042;-61
2022/12/18 01:00:32;;;;;;;82.03;21.85;;;;;;;;;;6249205;28;20206;-61
2022/12/18 01:03:32;;;;;;;81.32;21.27;;;;;;;;;;6248095;28;20049;-61
2022/12/18 01:06:33;;;;;;;72.68;19.92;;;;;;;;;;6244847;28;20048;-61
2022/12/18 01:09:34;;;;;;;76.20;20.27;;;;;;;;;;6247584;28;20056;-61
2022/12/18 01:12:35;;;;;;;78.57;19.48;;;;;;;;;;6258010;28;20074;-61
2022/12/18 01:15:36;;;;;;;69.20;19.60;;;;;;;;;;6258369;28;20119;-60
2022/12/18 01:18:36;;;;;;;78.82;20.92;;;;;;;;;;6259391;28;20191;-61
2022/12/18 01:21:37;;;;;;;71.63;18.73;;;;;;;;;;6248532;28;20493;-61
2022/12/18 01:24:37;;;;;;;68.95;18.65;;;;;;;;;;6249736;28;20233;-61
2022/12/18 01:27:38;;;;;;;76.82;17.05;;;;;;;;;;6263581;28;20079;-61
2022/12/18 01:30:39;;;;;;;61.22;17.15;;;;;;;;;;6247388;28;20052;-61
2022/12/18 01:33:39;;;;;;;65.93;16.20;;;;;;;;;;6249098;28;20056;-61
2022/12/18 01:36:40;;;;;;;64.95;17.48;;;;;;;;;;6247292;28;20076;-63
2022/12/18 01:39:40;;;;;;;68.20;16.50;;;;;;;;;;6249111;28;20052;-61
2022/12/18 01:42:41;;;;;;;60.22;17.45;;;;;;;;;;6246439;28;20053;-61
2022/12/18 01:45:42;;;;;;;66.72;18.92;;;;;;;;;;6246216;28;20079;-61
2022/12/18 01:48:45;;;;;;;72.05;18.88;;;;;;;;;;6261503;28;20053;-61
2022/12/18 01:51:45;;;;;;;68.70;17.15;;;;;;;;;;6256559;28;20140;-60
2022/12/18 01:54:48;;;;;;;65.30;17.05;;;;;;;;;;6246468;28;20151;-60
2022/12/18 01:57:53;;;;;;;85.68;18.95;;;;;;;;;;6255444;28;20052;-60
2022/12/18 02:00:54;;;;;;;68.60;19.17;;;;;;;;;;6263584;28;20058;-61
2022/12/18 02:03:55;;;;;;;64.20;17.10;;;;;;;;;;6246692;28;20053;-61
2022/12/18 02:07:27;;;;;;;65.18;18.00;;;;;;;;;;6245904;28;20519;-62
2022/12/18 02:10:36;;;;;;;77.32;17.92;;;;;;;;;;6248063;28;20053;-61
2022/12/18 02:13:49;;;;;;;67.10;17.27;;;;;;;;;;6245925;28;20131;-61
2022/12/18 02:17:04;;;;;;;66.53;17.98;;;;;;;;;;6247779;28;20450;-61
2022/12/18 02:20:44;;;;;;;54.35;15.18;;;;;;;;;;6247469;28;20054;-61
2022/12/18 02:24:17;;;;;;;65.35;17.85;;;;;;;;;;6225578;28;20049;-72
2022/12/18 02:27:19;;;;;;;70.30;16.63;;;;;;;;;;6245339;28;20049;-61
2022/12/18 02:30:20;;;;;;;65.95;17.23;;;;;;;;;;6244957;28;20428;-61
2022/12/18 02:33:24;;;;;;;60.63;17.15;;;;;;;;;;6245570;28;20101;-61
2022/12/18 02:36:27;;;;;;;71.15;19.05;;;;;;;;;;6245734;28;20509;-61
2022/12/18 02:39:29;;;;;;;66.10;17.23;;;;;;;;;;6245773;28;20107;-61
2022/12/18 02:42:30;;;;;;;74.22;17.80;;;;;;;;;;6245879;28;20397;-61
2022/12/18 02:45:31;;;;;;;68.38;17.23;;;;;;;;;;6243622;28;20037;-61
2022/12/18 02:48:35;;;;;;;72.18;18.83;;;;;;;;;;6250949;28;20049;-61
2022/12/18 02:52:14;;;;;;;68.97;16.67;;;;;;;;;;6263997;28;20568;-61
2022/12/18 02:55:26;;;;;;;74.43;18.25;;;;;;;;;;6246897;28;20069;-61
2022/12/18 02:58:44;;;;;;;;;;;;;;;;;;6271091;28;20049;-61
2022/12/18 03:02:03;;;;;;;66.55;16.70;;;;;;;;;;6253933;28;19928;-61
2022/12/18 03:05:12;;;;;;;61.63;17.48;;;;;;;;;;6262626;28;20510;-61
2022/12/18 03:08:19;;;;;;;65.22;18.75;;;;;;;;;;6253272;28;20053;-61
2022/12/18 03:12:22;;;;;;;64.57;17.45;;;;;;;;;;6252155;28;20399;-71
2022/12/18 03:14:42;;;;;;;72.95;18.55;;;;;;;;;;6250100;28;20077;-61
2022/12/18 03:18:18;;;;;;;63.03;18.70;;;;;;;;;;6251238;28;20055;-61
2022/12/18 03:21:24;;;;;;;59.70;17.17;;;;;;;;;;6240851;28;20487;-61
2022/12/18 03:24:29;;;;;;;62.38;17.38;;;;;;;;;;6248808;28;20557;-61
2022/12/18 03:27:33;;;;;;;72.78;17.73;;;;;;;;;;6248331;28;20055;-62
2022/12/18 03:30:38;;;;;;;67.78;19.95;;;;;;;;;;6248843;28;20036;-61
2022/12/18 03:33:47;;;;;;;71.88;17.85;;;;;;;;;;6249567;28;20115;-61
2022/12/18 03:36:48;;;;;;;73.68;18.70;;;;;;;;;;6250387;28;20052;-61
2022/12/18 03:39:48;;;;;;;73.82;21.52;;;;;;;;;;6262117;28;20049;-61
2022/12/18 03:42:54;;;;;;;72.85;17.83;;;;;;;;;;6253455;28;20768;-61
2022/12/18 03:46:06;;;;;;;77.20;19.52;;;;;;;;;;6252163;28;20411;-62
2022/12/18 03:49:13;;;;;;;;;;;;;;;;;;6250785;28;20068;-61
2022/12/18 03:52:25;;;;;;;80.50;18.40;;;;;;;;;;6249335;28;19921;-63
2022/12/18 03:55:29;;;;;;;76.65;18.70;;;;;;;;;;6257343;28;20048;-61
2022/12/18 03:58:32;;;;;;;73.57;18.83;;;;;;;;;;6251642;28;20064;-61
2022/12/18 04:01:39;;;;;;;85.32;20.58;;;;;;;;;;6252013;28;20049;-61
2022/12/18 04:04:42;;;;;;;78.57;20.15;;;;;;;;;;6257272;28;20051;-60
2022/12/18 04:07:45;;;;;;;74.65;20.42;;;;;;;;;;6250666;28;20476;-61
2022/12/18 04:10:46;;;;;;;83.35;21.35;;;;;;;;;;6249111;28;20089;-61
2022/12/18 04:13:46;;;;;;;75.43;19.25;;;;;;;;;;6247304;28;20051;-61
2022/12/18 04:16:47;;;;;;;69.20;18.83;;;;;;;;;;6249694;28;20506;-61
2022/12/18 04:19:48;;;;;;;67.15;18.92;;;;;;;;;;6255985;28;20102;-61
2022/12/18 04:22:48;;;;;;;73.05;18.65;;;;;;;;;;6268597;28;20115;-61
2022/12/18 04:25:49;;;;;;;81.57;20.17;;;;;;;;;;6249250;28;20106;-62
2022/12/18 04:28:49;;;;;;;73.85;20.20;;;;;;;;;;6250214;28;20997;-61
2022/12/18 04:31:50;;;;;;;73.10;20.13;;;;;;;;;;6247917;28;20077;-61
2022/12/18 04:34:50;;;;;;;76.07;21.40;;;;;;;;;;6244999;28;20410;-60
2022/12/18 04:37:51;;;;;;;79.55;20.83;;;;;;;;;;6246502;28;20086;-61
2022/12/18 04:40:52;;;;;;;76.15;18.33;;;;;;;;;;6249508;28;20722;-61
2022/12/18 04:43:52;;;;;;;73.13;18.48;;;;;;;;;;6248317;28;20056;-61
2022/12/18 04:46:53;;;;;;;73.60;19.98;;;;;;;;;;6248686;28;20041;-61
2022/12/18 04:49:53;;;;;;;73.57;18.17;;;;;;;;;;6245064;28;20100;-61
2022/12/18 04:52:54;;;;;;;73.80;19.58;;;;;;;;;;6247478;28;21214;-61
2022/12/18 04:56:13;;;;;;;77.03;20.48;;;;;;;;;;6246432;28;20053;-61
2022/12/18 04:59:13;;;;;;;79.95;20.25;;;;;;;;;;6247021;28;20174;-61
2022/12/18 05:02:14;;;;;;;72.00;19.75;;;;;;;;;;6248931;28;20049;-60
2022/12/18 05:05:14;;;;;;;77.15;20.75;;;;;;;;;;6246668;28;20049;-60
2022/12/18 05:08:15;;;;;;;74.13;19.50;;;;;;;;;;6247644;28;20099;-70
2022/12/18 05:11:15;;;;;;;80.10;22.90;;;;;;;;;;6247614;28;20052;-60
2022/12/18 05:14:16;;;;;;;79.43;21.95;;;;;;;;;;6246718;28;20137;-62
2022/12/18 05:17:17;;;;;;;75.20;21.25;;;;;;;;;;6248209;28;20071;-60
2022/12/18 05:20:18;;;;;;;83.38;20.50;;;;;;;;;;6244424;28;20099;-61
2022/12/18 05:23:20;;;;;;;92.60;24.67;;;;;;;;;;6246892;28;20135;-61
2022/12/18 05:26:20;;;;;;;83.80;21.02;;;;;;;;;;6245818;28;20049;-61
2022/12/18 05:29:21;;;;;;;80.13;21.45;;;;;;;;;;6246452;28;20056;-61
2022/12/18 05:32:22;;;;;;;81.30;22.50;;;;;;;;;;6245273;28;20049;-61
2022/12/18 05:35:22;;;;;;;77.88;20.83;;;;;;;;;;6245544;28;20072;-61
2022/12/18 05:38:24;;;;;;;79.10;21.52;;;;;;;;;;6248086;28;20068;-60
2022/12/18 05:41:25;;;;;;;85.18;22.75;;;;;;;;;;6248533;28;20045;-61
2022/12/18 05:44:26;;;;;;;84.85;22.35;;;;;;;;;;6245095;28;20073;-60
2022/12/18 05:47:27;;;;;;;80.05;22.40;;;;;;;;;;6246558;28;20056;-61
2022/12/18 05:50:28;;;;;;;78.30;22.20;;;;;;;;;;6244470;28;20447;-61
2022/12/18 05:53:28;;;;;;;81.22;21.35;;;;;;;;;;6246882;28;20060;-61
2022/12/18 05:56:29;;;;;;;87.93;24.15;;;;;;;;;;6246376;28;20399;-61
2022/12/18 05:59:29;;;;;;;86.65;23.23;;;;;;;;;;6248106;28;20037;-63
2022/12/18 06:02:30;;;;;;;88.65;23.00;;;;;;;;;;6249852;28;20137;-60
2022/12/18 06:05:37;;;;;;;91.38;24.50;;;;;;;;;;6242411;28;20045;-61
2022/12/18 06:08:38;;;;;;;76.95;22.65;;;;;;;;;;6247175;28;20064;-61
2022/12/18 06:11:38;;;;;;;83.90;23.83;;;;;;;;;;6247235;28;20415;-61
2022/12/18 06:14:39;;;;;;;94.65;24.83;;;;;;;;;;6245183;28;20455;-61
2022/12/18 06:17:40;;;;;;;86.10;24.20;;;;;;;;;;6248116;28;20045;-60
2022/12/18 06:20:41;;;;;;;94.45;24.13;;;;;;;;;;6245548;28;20061;-67
2022/12/18 06:23:41;;;;;;;87.10;24.20;;;;;;;;;;6245273;28;20052;-61
2022/12/18 06:26:42;;;;;;;94.93;26.10;;;;;;;;;;6243675;28;20048;-60
2022/12/18 06:29:42;;;;;;;85.28;22.85;;;;;;;;;;6247636;28;20049;-62
2022/12/18 06:32:43;;;;;;;97.18;25.92;;;;;;;;;;6253378;28;20143;-61
2022/12/18 06:35:44;;;;;;;96.35;26.30;;;;;;;;;;6252078;28;20045;-63
2022/12/18 06:38:44;;;;;;;89.43;23.33;;;;;;;;;;6249711;28;20223;-61
2022/12/18 06:41:45;;;;;;;81.45;23.08;;;;;;;;;;6250598;28;20584;-61
2022/12/18 06:44:46;;;;;;;97.22;25.33;;;;;;;;;;6247971;28;20052;-61
2022/12/18 06:47:46;;;;;;;90.15;23.42;;;;;;;;;;6247154;28;20786;-61
2022/12/18 06:50:47;;;;;;;77.13;21.25;;;;;;;;;;6252580;28;20172;-61
2022/12/18 06:53:48;;;;;;;85.35;21.40;;;;;;;;;;6250440;28;20045;-61
2022/12/18 06:56:49;;;;;;;93.10;26.58;;;;;;;;;;6249875;28;20052;-60
2022/12/18 06:59:49;;;;;;;84.70;22.92;;;;;;;;;;6249740;28;20050;-61
2022/12/18 07:02:50;;;;;;;82.25;20.90;;;;;;;;;;6250983;28;20132;-68
2022/12/18 07:05:50;;;;;;;72.07;20.20;;;;;;;;;;6250459;28;20045;-61
2022/12/18 07:08:53;;;;;;;70.85;21.90;;;;;;;;;;6257528;28;20505;-69
2022/12/18 07:11:53;;;;;;;83.15;21.58;;;;;;;;;;6269030;28;20480;-61
2022/12/18 07:14:54;;;;;;;69.53;20.63;;;;;;;;;;6250341;28;20047;-61
2022/12/18 07:17:54;;;;;;;84.60;21.20;;;;;;;;;;6250301;28;20053;-61
2022/12/18 07:20:55;;;;;;;93.13;20.95;;;;;;;;;;6255812;28;20049;-61
2022/12/18 07:23:56;;;;;;;79.03;22.63;;;;;;;;;;6266747;28;20381;-61
2022/12/18 07:26:56;;;;;;;81.70;22.45;;;;;;;;;;6269233;28;20161;-61
2022/12/18 07:29:57;;;;;;;84.95;22.60;;;;;;;;;;6258898;28;20045;-64
2022/12/18 07:32:58;;;;;;;83.28;20.73;;;;;;;;;;6251722;28;20048;-61
2022/12/18 07:35:59;;;;;;;87.68;22.58;;;;;;;;;;6247368;28;20099;-61
2022/12/18 07:39:00;;;;;;;90.28;21.23;;;;;;;;;;6269126;28;20049;-62
2022/12/18 07:45:20;;;;;;;92.95;25.58;;;;;;;;;;6260649;28;20633;-61
2022/12/18 07:48:20;;;;;;;87.75;23.30;;;;;;;;;;6249122;28;20042;-62
2022/12/18 07:51:21;;;;;;;86.18;23.88;;;;;;;;;;6257712;28;20069;-62
2022/12/18 07:54:22;;;;;;;95.80;26.20;;;;;;;;;;6248558;28;20492;-62
2022/12/18 07:57:23;;;;;;;89.03;24.88;;;;;;;;;;6250217;28;20431;-62
2022/12/18 08:00:24;;;;;;;86.57;23.73;;;;;;;;;;6269067;28;20044;-69
2022/12/18 08:03:24;;;;;;;95.78;24.08;;;;;;;;;;6269787;28;20476;-67
2022/12/18 08:06:25;;;;;;;88.05;23.33;;;;;;;;;;6269217;28;20048;-61
2022/12/18 08:09:26;;;;;;;88.07;25.40;;;;;;;;;;6269627;28;20049;-61
2022/12/18 08:12:26;;;;;;;85.90;24.42;;;;;;;;;;6269900;28;20059;-62
2022/12/18 08:15:27;;;;;;;107.85;28.23;;;;;;;;;;6269366;28;20084;-62
2022/12/18 08:18:28;;;;;;;116.85;29.67;;;;;;;;;;6269303;28;20118;-61
2022/12/18 08:21:31;;;;;;;116.17;30.57;;;;;;;;;;6269513;28;20388;-63
2022/12/18 08:24:32;;;;;;;107.63;29.75;;;;;;;;;;6268683;28;20044;-65
2022/12/18 08:27:32;;;;;;;119.60;31.27;;;;;;;;;;6269198;28;20087;-66
2022/12/18 08:30:33;;;;;;;110.10;32.95;;;;;;;;;;6269310;28;20041;-65
2022/12/18 08:33:34;;;;;;;110.63;32.05;;;;;;;;;;6269366;28;20095;-63
2022/12/18 08:36:35;;;;;;;115.67;35.10;;;;;;;;;;6268498;28;20091;-63
2022/12/18 08:39:36;;;;;;;114.75;32.60;;;;;;;;;;6269142;28;20515;-64
2022/12/18 08:46:06;;;;;;;109.72;33.92;;;;;;;;;;6247722;28;20044;-64
2022/12/18 08:49:08;;;;;;;114.55;31.25;;;;;;;;;;6268241;28;20114;-65
2022/12/18 08:52:09;;;;;;;130.90;34.55;;;;;;;;;;6270723;28;20061;-63
2022/12/18 08:55:10;;;;;;;113.70;32.20;;;;;;;;;;6284487;28;20052;-62
2022/12/18 08:58:12;;;;;;;108.25;32.42;;;;;;;;;;6273792;28;20483;-61
2022/12/18 09:01:13;;;;;;;127.07;36.97;;;;;;;;;;6268799;28;20048;-62
2022/12/18 09:04:14;;;;;;;133.38;37.85;;;;;;;;;;6268723;28;20045;-63
2022/12/18 09:07:14;;;;;;;128.15;36.80;;;;;;;;;;6274679;28;20381;-62
2022/12/18 09:10:15;;;;;;;117.00;32.58;;;;;;;;;;6268141;28;20063;-63
2022/12/18 09:13:16;;;;;;;118.53;36.35;;;;;;;;;;6268545;28;20368;-66
2022/12/18 09:16:19;;;;;;;105.93;31.98;;;;;;;;;;6265827;28;20068;-64
2022/12/18 09:19:19;;;;;;;115.35;31.08;;;;;;;;;;6266686;28;20052;-64
2022/12/18 09:22:20;;;;;;;131.75;38.20;;;;;;;;;;6267665;28;20049;-67
2022/12/18 09:25:20;;;;;;;132.50;38.45;;;;;;;;;;6268232;28;20048;-63
2022/12/18 09:28:21;;;;;;;118.63;33.63;;;;;;;;;;6267281;28;20056;-64
2022/12/18 09:31:23;;;;;;;142.95;38.30;;;;;;;;;;6267884;28;20045;-63
2022/12/18 09:34:24;;;;;;;;;;;;;;;;;;6268403;28;20051;-63
2022/12/18 09:37:24;;;;;;;117.55;33.58;;;;;;;;;;6266926;28;20425;-64
2022/12/18 09:40:28;;;;;;;116.80;31.02;;;;;;;;;;6266462;28;20162;-64
2022/12/18 09:43:51;;;;;;;115.40;34.22;;;;;;;;;;6267935;28;20102;-64
2022/12/18 09:47:13;;;;;;;115.43;34.58;;;;;;;;;;6266115;28;20529;-66
2022/12/18 09:50:23;;;;;;;126.97;36.25;;;;;;;;;;6264947;28;20057;-64
2022/12/18 09:53:27;;;;;;;129.70;37.65;;;;;;;;;;6265990;28;20049;-64
2022/12/18 09:56:31;;;;;;;133.60;42.30;;;;;;;;;;6266159;28;20060;-64
2022/12/18 09:59:37;;;;;;;106.07;33.92;;;;;;;;;;6265111;28;20175;-64
2022/12/18 10:02:38;;;;;;;109.53;32.33;;;;;;;;;;6264924;28;20494;-64
2022/12/18 10:05:53;;;;;;;119.47;34.10;;;;;;;;;;6265777;28;20060;-64
2022/12/18 10:09:07;;;;;;;107.95;34.97;;;;;;;;;;6265691;28;20132;-69
2022/12/18 10:12:21;;;;;;;115.13;33.20;;;;;;;;;;6264907;28;20045;-63
2022/12/18 10:15:36;;;;;;;115.45;31.35;;;;;;;;;;6265412;28;20053;-63
2022/12/18 10:18:53;;;;;;;86.93;29.08;;;;;;;;;;6264021;28;20047;-64
2022/12/18 10:22:18;;;;;;;81.40;22.10;;;;;;;;;;6241197;28;20145;-70
2022/12/18 10:25:25;;;;;;;100.57;26.95;;;;;;;;;;6239690;28;20057;-64
2022/12/18 10:28:26;;;;;;;85.82;23.55;;;;;;;;;;6240814;28;20151;-64
2022/12/18 10:31:27;;;;;;;78.88;22.05;;;;;;;;;;6250652;28;20046;-64
2022/12/18 10:34:27;;;;;;;70.70;20.85;;;;;;;;;;6240527;28;20049;-62
2022/12/18 10:37:29;;;;;;;91.60;25.63;;;;;;;;;;6240575;28;20081;-63
2022/12/18 10:40:30;;;;;;;94.17;26.73;;;;;;;;;;6248544;28;20077;-61
2022/12/18 10:43:38;;;;;;;90.53;25.77;;;;;;;;;;6263034;28;20059;-67
2022/12/18 10:46:38;;;;;;;106.35;30.88;;;;;;;;;;6265636;28;20084;-64
2022/12/18 10:49:48;;;;;;;80.35;23.58;;;;;;;;;;6258357;28;20156;-66
2022/12/18 10:53:00;;;;;;;135.43;36.78;;;;;;;;;;6249164;28;20159;-63
2022/12/18 10:56:04;;;;;;;139.40;36.22;;;;;;;;;;6266163;28;20053;-72
2022/12/18 10:59:07;;;;;;;88.47;26.35;;;;;;;;;;6265366;28;20510;-63
2022/12/18 11:02:36;;;;;;;63.58;20.20;;;;;;;;;;6242517;28;20073;-68
2022/12/18 11:05:37;;;;;;;79.47;21.85;;;;;;;;;;6241958;28;20045;-64
2022/12/18 11:08:39;;;;;;;71.38;22.85;;;;;;;;;;6260755;28;20069;-64
2022/12/18 11:11:39;;;;;;;88.00;23.95;;;;;;;;;;6266170;28;20049;-64
2022/12/18 11:14:50;;;;;;;80.47;23.98;;;;;;;;;;6257002;28;20041;-66
2022/12/18 11:17:52;;;;;;;62.20;18.88;;;;;;;;;;6256111;28;20050;-65
2022/12/18 11:21:06;;;;;;;63.83;17.58;;;;;;;;;;6250269;28;20041;-66
2022/12/18 11:24:18;;;;;;;70.40;20.17;;;;;;;;;;6258983;28;20162;-67
2022/12/18 11:27:19;;;;;;;67.07;18.60;;;;;;;;;;6263211;28;20063;-65
2022/12/18 11:30:26;;;;;;;64.75;20.30;;;;;;;;;;6267135;28;20491;-68
2022/12/18 11:33:27;;;;;;;62.28;19.70;;;;;;;;;;6259947;28;20144;-62
2022/12/18 11:36:34;;;;;;;77.25;20.13;;;;;;;;;;6268189;28;20733;-69
2022/12/18 11:39:42;;;;;;;72.15;19.73;;;;;;;;;;6269628;28;20051;-66
2022/12/18 11:43:12;;;;;;;74.63;20.95;;;;;;;;;;6267119;28;20083;-66
2022/12/18 11:46:18;;;;;;;68.38;20.67;;;;;;;;;;6252066;28;20052;-64
2022/12/18 11:49:35;;;;;;;72.45;19.98;;;;;;;;;;6264452;28;20147;-70
2022/12/18 11:52:39;;;;;;;73.15;21.48;;;;;;;;;;6261675;28;20119;-65
2022/12/18 11:56:17;;;;;;;78.22;20.70;;;;;;;;;;6258891;28;20509;-63
2022/12/18 11:59:32;;;;;;;77.78;20.60;;;;;;;;;;6258707;28;20052;-65
2022/12/18 12:03:05;;;;;;;76.43;22.27;;;;;;;;;;6260796;28;20179;-68
2022/12/18 12:06:24;;;;;;;71.97;22.65;;;;;;;;;;6261666;28;20079;-65
2022/12/18 12:09:38;;;;;;;69.35;20.08;;;;;;;;;;6257095;28;20135;-65
2022/12/18 12:13:10;;;;;;;72.05;21.45;;;;;;;;;;6259112;28;20412;-65
2022/12/18 12:16:17;;;;;;;68.15;21.02;;;;;;;;;;6259376;28;20056;-64
2022/12/18 12:19:55;;;;;;;74.93;21.30;;;;;;;;;;6258356;28;20056;-68
2022/12/18 12:23:09;;;;;;;72.43;21.33;;;;;;;;;;6259920;28;20393;-65
2022/12/18 12:26:12;;;;;;;73.90;22.08;;;;;;;;;;6258441;28;20045;-66
2022/12/18 12:29:39;;;;;;;82.03;23.98;;;;;;;;;;6256663;28;20691;-66
2022/12/18 12:33:09;;;;;;;73.28;20.70;;;;;;;;;;6259115;28;20048;-66
2022/12/18 12:36:37;;;;;;;69.65;22.40;;;;;;;;;;6247583;28;20052;-66
2022/12/18 12:39:42;;;;;;;74.40;22.23;;;;;;;;;;6252011;28;20116;-67
2022/12/18 12:46:11;;;;;;;67.18;21.13;;;;;;;;;;6258885;28;20136;-67
2022/12/18 12:49:17;;;;;;;78.00;20.95;;;;;;;;;;6256095;28;20064;-67
2022/12/18 12:52:26;;;;;;;67.20;20.25;;;;;;;;;;6256166;28;20067;-65
2022/12/18 12:55:28;;;;;;;82.43;24.77;;;;;;;;;;6259065;28;20128;-65
2022/12/18 12:58:45;;;;;;;75.90;21.30;;;;;;;;;;6256297;28;20049;-65
2022/12/18 13:02:15;;;;;;;71.28;21.38;;;;;;;;;;6258616;28;20049;-65
2022/12/18 13:05:27;;;;;;;67.90;19.65;;;;;;;;;;6256464;28;20053;-69
2022/12/18 13:08:50;;;;;;;70.90;18.65;;;;;;;;;;6255565;28;20048;-64
2022/12/18 13:15:21;;;;;;;64.05;20.58;;;;;;;;;;6266104;28;20119;-65
2022/12/18 13:18:24;;;;;;;65.05;20.05;;;;;;;;;;6264258;28;20053;-68
2022/12/18 13:21:29;;;;;;;;;;;;;;;;;;6253811;28;20057;-65
2022/12/18 13:24:31;;;;;;;72.90;19.95;;;;;;;;;;6250758;28;20043;-68
2022/12/18 13:27:54;;;;;;;82.57;25.27;;;;;;;;;;6255748;28;20087;-64
2022/12/18 13:30:57;;;;;;;101.28;25.58;;;;;;;;;;6254234;28;20491;-64
2022/12/18 13:34:18;;;;;;;106.00;28.13;;;;;;;;;;6257934;28;20155;-64
2022/12/18 13:37:31;;;;;;;106.55;30.92;;;;;;;;;;6257787;28;20901;-64
2022/12/18 13:40:49;;;;;;;114.03;31.08;;;;;;;;;;6252856;28;20487;-69
2022/12/18 13:43:57;;;;;;;106.00;30.83;;;;;;;;;;6255416;28;20079;-65
2022/12/18 13:47:00;;;;;;;98.05;30.50;;;;;;;;;;6256596;28;20048;-72
2022/12/18 13:50:14;;;;;;;97.28;30.65;;;;;;;;;;6255447;28;20464;-65
2022/12/18 13:53:29;;;;;;;121.15;32.20;;;;;;;;;;6253470;28;20103;-63
2022/12/18 13:56:32;;;;;;;124.80;32.90;;;;;;;;;;6254878;28;20514;-65
2022/12/18 13:59:35;;;;;;;127.78;35.38;;;;;;;;;;6254539;28;20049;-74
2022/12/18 14:02:36;;;;;;;162.70;42.92;;;;;;;;;;6254071;28;20148;-63
2022/12/18 14:05:37;;;;;;;125.28;40.08;;;;;;;;;;6255971;28;20050;-68
2022/12/18 14:08:42;;;;;;;96.80;28.60;;;;;;;;;;6254239;28;21728;-65
2022/12/18 14:11:48;;;;;;;95.00;29.83;;;;;;;;;;6256540;28;20045;-65
2022/12/18 14:14:51;;;;;;;89.57;29.65;;;;;;;;;;6254871;28;20077;-70
2022/12/18 14:17:59;;;;;;;82.43;28.70;;;;;;;;;;6256664;28;20060;-64
2022/12/18 14:21:02;;;;;;;97.35;31.15;;;;;;;;;;6254099;28;20495;-64
2022/12/18 14:24:04;;;;;;;100.75;34.50;;;;;;;;;;6255079;28;20085;-68
2022/12/18 14:27:21;;;;;;;96.05;35.70;;;;;;;;;;6255250;28;20136;-64
2022/12/18 14:30:27;;;;;;;121.85;40.50;;;;;;;;;;6254678;28;20056;-64
2022/12/18 14:33:28;;;;;;;129.68;42.50;;;;;;;;;;6255576;28;20069;-63
2022/12/18 14:36:29;;;;;;;138.05;42.90;;;;;;;;;;6255862;28;20614;-66
2022/12/18 14:39:30;;;;;;;147.65;49.08;;;;;;;;;;6253672;28;20064;-62
2022/12/18 14:42:31;;;;;;;160.65;49.10;;;;;;;;;;6253961;28;20164;-63
2022/12/18 14:45:41;;;;;;;139.00;47.07;;;;;;;;;;6253286;28;20169;-65
2022/12/18 14:48:42;;;;;;;130.68;44.03;;;;;;;;;;6249299;28;20079;-62
2022/12/18 14:51:53;;;;;;;136.48;47.05;;;;;;;;;;6255577;28;20048;-64
2022/12/18 14:54:53;;;;;;;139.27;48.25;;;;;;;;;;6258052;28;20140;-64
2022/12/18 14:57:56;;;;;;;153.02;50.05;;;;;;;;;;6256478;28;20049;-63
2022/12/18 15:01:24;;;;;;;;;;;;;;;;;;6256991;28;20056;-62
2022/12/18 15:04:34;;;;;;;155.20;49.75;;;;;;;;;;6257559;28;20302;-62
2022/12/18 15:07:42;;;;;;;159.93;50.70;;;;;;;;;;6258151;28;20048;-62
2022/12/18 15:10:47;;;;;;;219.48;74.50;;;;;;;;;;6257221;28;20242;-62
2022/12/18 15:13:47;;;;;;;250.15;77.22;;;;;;;;;;6260216;28;20486;-61
2022/12/18 15:16:53;;;;;;;193.02;61.30;;;;;;;;;;6260010;28;20040;-62
2022/12/18 15:20:01;;;;;;;164.50;55.00;;;;;;;;;;6257544;28;20044;-62
2022/12/18 15:23:01;;;;;;;197.50;59.90;;;;;;;;;;6259145;28;20067;-60
2022/12/18 15:26:07;;;;;;;209.27;65.18;;;;;;;;;;6260986;28;20049;-60
2022/12/18 15:29:21;;;;;;;209.98;67.63;;;;;;;;;;6258741;28;20427;-61
2022/12/18 15:32:22;;;;;;;194.60;63.17;;;;;;;;;;6259441;28;20059;-65
2022/12/18 15:35:24;;;;;;;199.88;64.00;;;;;;;;;;6258741;28;20099;-62
2022/12/18 15:38:25;;;;;;;199.25;68.80;;;;;;;;;;6258980;28;20060;-64
2022/12/18 15:41:27;;;;;;;197.48;66.15;;;;;;;;;;6257014;28;20053;-61
2022/12/18 15:44:27;;;;;;;185.60;60.17;;;;;;;;;;6255821;28;20045;-60
2022/12/18 15:47:28;;;;;;;169.40;57.63;;;;;;;;;;6254663;28;20064;-60
2022/12/18 15:50:29;;;;;;;168.82;55.67;;;;;;;;;;6257049;28;20060;-59
2022/12/18 15:53:32;;;;;;;155.20;52.90;;;;;;;;;;6255729;28;20526;-60
2022/12/18 15:59:57;;;;;;;164.95;50.90;;;;;;;;;;6254531;28;20049;-60
2022/12/18 16:02:58;;;;;;;168.23;53.17;;;;;;;;;;6253869;28;20084;-59
2022/12/18 16:06:01;;;;;;;170.25;52.00;;;;;;;;;;6257550;28;20576;-59
2022/12/18 16:09:02;;;;;;;164.25;51.30;;;;;;;;;;6256835;28;20061;-61
2022/12/18 16:12:03;;;;;;;164.77;53.47;;;;;;;;;;6258043;28;20045;-60
2022/12/18 16:15:05;;;;;;;168.15;54.95;;;;;;;;;;6255876;28;20045;-60
2022/12/18 16:18:06;;;;;;;174.32;57.00;;;;;;;;;;6258138;28;20532;-58
2022/12/18 16:21:07;;;;;;;165.73;53.95;;;;;;;;;;6256649;28;20060;-63
2022/12/18 16:24:21;;;;;;;166.95;52.08;;;;;;;;;;6254916;28;20044;-60
2022/12/18 16:27:22;;;;;;;169.70;55.22;;;;;;;;;;6259028;28;20057;-59
2022/12/18 16:30:27;;;;;;;167.40;53.42;;;;;;;;;;6255687;28;20053;-61
2022/12/18 16:33:28;;;;;;;169.82;55.55;;;;;;;;;;6257804;28;20056;-62
2022/12/18 16:36:28;;;;;;;156.73;55.95;;;;;;;;;;6258081;28;20519;-64
2022/12/18 16:39:30;;;;;;;161.27;56.25;;;;;;;;;;6255600;28;20579;-63
2022/12/18 16:42:30;;;;;;;167.80;55.15;;;;;;;;;;6258812;28;20484;-61
2022/12/18 16:45:32;;;;;;;163.07;58.80;;;;;;;;;;6257545;28;20159;-63
2022/12/18 16:48:34;;;;;;;168.18;55.55;;;;;;;;;;6256864;28;20051;-61
2022/12/18 16:51:35;;;;;;;172.18;56.25;;;;;;;;;;6254234;28;20061;-61
2022/12/18 16:54:36;;;;;;;179.38;59.60;;;;;;;;;;6254989;28;20057;-62
2022/12/18 16:57:36;;;;;;;177.02;60.92;;;;;;;;;;6255754;28;20044;-64
2022/12/18 17:00:40;;;;;;;202.93;67.72;;;;;;;;;;6254802;28;20036;-64
2022/12/18 17:03:41;;;;;;;190.90;64.57;;;;;;;;;;6257299;28;20059;-63
2022/12/18 17:06:43;;;;;;;171.27;61.78;;;;;;;;;;6258183;28;20765;-62
2022/12/18 17:09:43;;;;;;;161.30;56.85;;;;;;;;;;6256970;28;20084;-64
2022/12/18 17:12:44;;;;;;;111.20;41.00;;;;;;;;;;6256980;28;20170;-62
2022/12/18 17:15:45;;;;;;;124.03;41.30;;;;;;;;;;6257162;28;20040;-63
2022/12/18 17:18:46;;;;;;;104.57;37.53;;;;;;;;;;6255741;28;20238;-65
2022/12/18 17:21:49;;;;;;;96.18;33.17;;;;;;;;;;6256969;28;20049;-62
2022/12/18 17:24:50;;;;;;;101.47;33.88;;;;;;;;;;6254545;28;20056;-62
2022/12/18 17:27:50;;;;;;;116.22;34.42;;;;;;;;;;6253227;28;20431;-62
2022/12/18 17:30:53;;;;;;;107.03;32.75;;;;;;;;;;6251276;28;20140;-63
2022/12/18 17:33:53;;;;;;;105.50;34.88;;;;;;;;;;6252381;28;20053;-64
2022/12/18 17:36:54;;;;;;;99.07;31.60;;;;;;;;;;6253820;28;20057;-61
2022/12/18 17:39:55;;;;;;;93.70;30.52;;;;;;;;;;6252044;28;20091;-63
2022/12/18 17:42:55;;;;;;;86.82;29.35;;;;;;;;;;6255838;28;20056;-64
2022/12/18 17:46:00;;;;;;;90.30;31.27;;;;;;;;;;6253592;28;20417;-61
2022/12/18 17:49:02;;;;;;;93.72;30.52;;;;;;;;;;6254534;28;20065;-66
2022/12/18 17:52:03;;;;;;;92.80;30.10;;;;;;;;;;6255930;28;20079;-62
2022/12/18 17:55:05;;;;;;;91.90;30.93;;;;;;;;;;6252152;28;21312;-62
2022/12/18 17:58:05;;;;;;;94.20;31.63;;;;;;;;;;6253769;28;20926;-70
2022/12/18 18:01:06;;;;;;;78.47;30.23;;;;;;;;;;6254553;28;20057;-66
2022/12/18 18:04:07;;;;;;;89.53;31.48;;;;;;;;;;6255777;28;20094;-65
2022/12/18 18:07:08;;;;;;;85.53;32.08;;;;;;;;;;6256761;28;20144;-69
2022/12/18 18:10:09;;;;;;;82.00;29.40;;;;;;;;;;6254107;28;20510;-69
2022/12/18 18:14:01;;;;;;;91.45;32.63;;;;;;;;;;6251835;28;20045;-68